createdAt,value
2018-12-25T00:00:56.420Z,3.50
2018-12-25T00:05:49.339Z,3.30
2018-12-25T00:11:04.128Z,3.20
2018-12-25T00:15:57.025Z,3.20
2018-12-25T00:20:49.862Z,3.20
2018-12-25T00:25:43.533Z,3.30
2018-12-25T00:30:36.411Z,3.30
2018-12-25T00:35:29.278Z,3.50
2018-12-25T00:40:22.221Z,3.30
2018-12-25T00:45:18.273Z,3.10
2018-12-25T00:50:12.073Z,3.10
2018-12-25T00:55:04.967Z,3.20
2018-12-25T00:59:57.897Z,3.10
2018-12-25T01:04:50.729Z,3.00
2018-12-25T01:09:43.630Z,3.00
2018-12-25T01:14:36.791Z,3.00
2018-12-25T01:19:30.606Z,3.10
2018-12-25T01:24:23.449Z,3.00
2018-12-25T01:29:16.297Z,3.00
2018-12-25T01:34:09.183Z,3.20
2018-12-25T01:39:02.347Z,3.20
2018-12-25T01:43:55.240Z,3.30
2018-12-25T01:48:48.141Z,3.30
2018-12-25T01:53:40.981Z,3.30
2018-12-25T01:58:33.841Z,3.50
2018-12-25T02:03:26.708Z,3.40
2018-12-25T02:08:19.573Z,3.40
2018-12-25T02:13:12.459Z,3.40
2018-12-25T02:18:05.335Z,3.40
2018-12-25T02:22:58.310Z,3.40
2018-12-25T02:27:51.171Z,3.40
2018-12-25T02:32:44.064Z,3.50
2018-12-25T02:37:36.906Z,3.50
2018-12-25T02:42:29.793Z,3.50
2018-12-25T02:47:22.651Z,3.50
2018-12-25T02:52:16.698Z,3.50
2018-12-25T02:57:09.526Z,3.40
2018-12-25T03:02:03.322Z,3.40
2018-12-25T03:06:56.202Z,3.50
2018-12-25T03:11:50.047Z,3.60
2018-12-25T03:16:42.899Z,3.70
2018-12-25T03:21:35.762Z,3.60
2018-12-25T03:26:28.619Z,3.60
2018-12-25T03:31:21.486Z,3.60
2018-12-25T03:36:14.367Z,3.60
2018-12-25T03:41:08.318Z,3.60
2018-12-25T03:46:01.198Z,3.60
2018-12-25T03:50:54.066Z,3.60
2018-12-25T03:55:47.026Z,3.80
2018-12-25T04:00:39.907Z,3.80
2018-12-25T04:05:32.798Z,3.80
2018-12-25T04:10:25.724Z,3.90
2018-12-25T04:15:18.626Z,3.90
2018-12-25T04:20:19.723Z,3.90
2018-12-25T04:25:06.247Z,3.80
2018-12-25T04:29:59.107Z,3.80
2018-12-25T04:34:51.985Z,3.80
2018-12-25T04:39:44.864Z,3.80
2018-12-25T04:44:37.758Z,3.70
2018-12-25T04:49:30.589Z,3.90
2018-12-25T04:54:23.486Z,3.80
2018-12-25T04:59:16.390Z,3.90
2018-12-25T05:04:12.203Z,3.90
2018-12-25T05:09:06.903Z,3.90
2018-12-25T05:13:59.756Z,4.00
2018-12-25T05:18:52.625Z,4.10
2018-12-25T05:23:45.481Z,4.10
2018-12-25T05:28:38.337Z,4.10
2018-12-25T05:33:31.224Z,4.20
2018-12-25T05:38:24.082Z,4.20
2018-12-25T05:43:16.924Z,4.30
2018-12-25T05:48:09.806Z,4.50
2018-12-25T05:53:02.694Z,4.30
2018-12-25T05:57:55.529Z,4.30
2018-12-25T06:02:48.398Z,4.60
2018-12-25T06:07:41.252Z,4.70
2018-12-25T06:12:34.158Z,4.80
2018-12-25T06:17:27.026Z,4.80
2018-12-25T06:22:21.117Z,5.00
2018-12-25T06:27:13.989Z,5.00
2018-12-25T06:32:08.685Z,4.90
2018-12-25T06:37:02.020Z,4.70
2018-12-25T06:41:54.896Z,4.70
2018-12-25T06:46:47.762Z,4.60
2018-12-25T06:51:40.627Z,4.50
2018-12-25T06:56:33.486Z,4.50
2018-12-25T07:01:28.449Z,4.60
2018-12-25T07:06:21.296Z,4.70
2018-12-25T07:11:14.146Z,4.60
2018-12-25T07:16:07.001Z,4.50
2018-12-25T07:20:59.886Z,4.50
2018-12-25T07:25:52.762Z,4.50
2018-12-25T07:30:45.633Z,4.50
2018-12-25T07:35:38.498Z,4.40
2018-12-25T07:40:31.333Z,4.40
2018-12-25T07:45:24.209Z,4.50
2018-12-25T07:50:17.074Z,4.40
2018-12-25T07:55:09.938Z,4.40
2018-12-25T08:00:03.169Z,4.50
2018-12-25T08:04:56.044Z,4.40
2018-12-25T08:09:48.910Z,4.50
2018-12-25T08:14:41.817Z,4.60
2018-12-25T08:19:34.703Z,4.50
2018-12-25T08:24:27.574Z,4.50
2018-12-25T08:29:20.434Z,4.80
2018-12-25T08:34:15.137Z,5.10
2018-12-25T08:39:08.063Z,5.30
2018-12-25T08:44:00.886Z,5.50
2018-12-25T08:48:53.750Z,5.50
2018-12-25T08:53:46.600Z,5.60
2018-12-25T08:58:39.462Z,5.50
2018-12-25T09:03:32.370Z,5.50
2018-12-25T09:08:25.230Z,5.80
2018-12-25T09:13:18.088Z,5.80
2018-12-25T09:18:11.034Z,5.70
2018-12-25T09:23:03.879Z,5.80
2018-12-25T09:27:56.786Z,6.00
2018-12-25T09:32:49.664Z,6.20
2018-12-25T09:37:42.556Z,6.50
2018-12-25T09:42:35.409Z,6.80
2018-12-25T09:47:28.254Z,7.10
2018-12-25T09:52:22.222Z,7.30
2018-12-25T09:57:15.082Z,7.30
2018-12-25T10:02:07.959Z,6.90
2018-12-25T10:07:00.851Z,7.10
2018-12-25T10:11:53.718Z,7.50
2018-12-25T10:16:46.566Z,8.00
2018-12-25T10:21:39.441Z,8.20
2018-12-25T10:26:32.307Z,7.90
2018-12-25T10:31:25.242Z,7.90
2018-12-25T10:36:18.114Z,7.90
2018-12-25T10:41:12.802Z,8.00
2018-12-25T10:46:05.772Z,8.10
2018-12-25T10:50:58.755Z,8.20
2018-12-25T10:55:51.605Z,8.40
2018-12-25T11:00:53.292Z,8.50
2018-12-25T11:05:46.250Z,8.50
2018-12-25T11:10:39.260Z,8.60
2018-12-25T11:15:36.193Z,8.60
2018-12-25T11:20:39.732Z,8.80
2018-12-25T11:25:36.149Z,8.90
2018-12-25T11:30:33.228Z,8.60
2018-12-25T11:35:29.622Z,8.70
2018-12-25T11:40:25.335Z,8.90
2018-12-25T11:45:20.887Z,9.00
2018-12-25T11:50:13.786Z,9.10
2018-12-25T11:55:06.656Z,9.20
2018-12-25T11:59:59.501Z,8.90
2018-12-25T12:04:52.384Z,8.90
2018-12-25T12:09:45.328Z,9.00
2018-12-25T12:14:38.205Z,9.00
2018-12-25T12:19:31.073Z,9.00
2018-12-25T12:24:23.940Z,9.10
2018-12-25T12:29:16.774Z,9.10
2018-12-25T12:34:09.677Z,9.20
2018-12-25T12:39:04.075Z,9.30
2018-12-25T12:43:56.992Z,9.30
2018-12-25T12:48:49.870Z,9.10
2018-12-25T12:53:45.576Z,8.90
2018-12-25T12:58:38.434Z,8.90
2018-12-25T13:03:31.352Z,9.10
2018-12-25T13:08:24.260Z,9.10
2018-12-25T13:13:17.152Z,9.00
2018-12-25T13:18:10.009Z,8.80
2018-12-25T13:23:02.891Z,8.70
2018-12-25T13:27:55.760Z,8.50
2018-12-25T13:32:48.667Z,8.30
2018-12-25T13:37:41.520Z,8.30
2018-12-25T13:42:34.391Z,8.50
2018-12-25T13:47:27.342Z,8.60
2018-12-25T13:52:20.222Z,8.60
2018-12-25T13:57:13.100Z,8.70
2018-12-25T14:02:05.964Z,8.50
2018-12-25T14:06:58.858Z,8.40
2018-12-25T14:11:52.802Z,8.10
2018-12-25T14:16:45.746Z,7.80
2018-12-25T14:21:38.657Z,7.60
2018-12-25T14:26:31.533Z,7.50
2018-12-25T14:31:24.412Z,7.30
2018-12-25T14:36:17.294Z,7.10
2018-12-25T14:41:10.261Z,7.10
2018-12-25T14:46:03.134Z,7.20
2018-12-25T14:50:55.995Z,7.10
2018-12-25T14:55:49.979Z,7.10
2018-12-25T15:00:42.856Z,6.90
2018-12-25T15:05:35.724Z,6.50
2018-12-25T15:10:28.943Z,6.40
2018-12-25T15:15:21.803Z,6.30
2018-12-25T15:20:14.696Z,6.10
2018-12-25T15:25:07.613Z,6.20
2018-12-25T15:30:00.631Z,6.30
2018-12-25T15:34:55.849Z,6.30
2018-12-25T15:39:48.702Z,6.10
2018-12-25T15:44:41.585Z,5.90
2018-12-25T15:49:34.473Z,5.90
2018-12-25T15:54:27.330Z,5.80
2018-12-25T15:59:20.194Z,5.80
2018-12-25T16:04:13.063Z,5.70
2018-12-25T16:09:07.453Z,5.50
2018-12-25T16:14:00.320Z,5.40
2018-12-25T16:18:53.177Z,5.30
2018-12-25T16:23:46.042Z,5.10
2018-12-25T16:28:38.898Z,4.90
2018-12-25T16:33:31.793Z,4.80
2018-12-25T16:38:24.666Z,4.70
2018-12-25T16:43:18.636Z,4.70
2018-12-25T16:48:11.480Z,4.70
2018-12-25T16:53:04.473Z,4.90
2018-12-25T16:57:57.475Z,4.90
2018-12-25T17:02:50.356Z,5.20
2018-12-25T17:07:43.201Z,5.10
2018-12-25T17:12:36.086Z,5.20
2018-12-25T17:17:28.953Z,5.30
2018-12-25T17:22:22.142Z,5.00
2018-12-25T17:27:15.004Z,4.70
2018-12-25T17:32:07.888Z,4.60
2018-12-25T17:37:00.751Z,4.70
2018-12-25T17:41:53.652Z,4.90
2018-12-25T17:46:46.506Z,5.00
2018-12-25T17:51:39.351Z,5.00
2018-12-25T17:56:37.705Z,4.90
2018-12-25T18:01:26.982Z,4.70
2018-12-25T18:06:19.863Z,4.60
2018-12-25T18:11:12.753Z,4.50
2018-12-25T18:16:05.611Z,4.50
2018-12-25T18:20:58.467Z,4.50
2018-12-25T18:25:51.367Z,4.60
2018-12-25T18:30:44.237Z,4.50
2018-12-25T18:35:37.105Z,4.20
2018-12-25T18:40:29.968Z,4.00
2018-12-25T18:45:22.829Z,3.80
2018-12-25T18:50:15.685Z,3.70
2018-12-25T18:55:08.547Z,3.40
2018-12-25T19:00:01.395Z,3.30
2018-12-25T19:04:55.246Z,3.10
2018-12-25T19:09:48.132Z,3.10
2018-12-25T19:14:58.732Z,2.90
2018-12-25T19:19:51.627Z,2.80
2018-12-25T19:24:44.477Z,2.80
2018-12-25T19:29:37.465Z,2.70
2018-12-25T19:34:30.366Z,2.60
2018-12-25T19:39:23.252Z,2.40
2018-12-25T19:44:16.099Z,2.40
2018-12-25T19:49:08.986Z,2.40
2018-12-25T19:54:01.831Z,2.30
2018-12-25T19:58:54.708Z,2.30
2018-12-25T20:03:53.706Z,2.20
2018-12-25T20:09:59.604Z,2.10
2018-12-25T20:15:45.099Z,2.10
2018-12-25T20:21:19.272Z,2.00
2018-12-25T20:27:09.106Z,2.00
2018-12-25T20:33:13.907Z,1.90
2018-12-25T20:39:28.843Z,1.80
2018-12-25T20:45:40.715Z,1.80
2018-12-25T20:51:41.437Z,1.80
2018-12-25T20:57:37.461Z,1.60
2018-12-25T21:03:52.366Z,1.50
2018-12-25T21:09:41.561Z,1.40
2018-12-25T21:15:52.444Z,1.40
2018-12-25T21:21:47.670Z,1.40
2018-12-25T21:27:29.726Z,1.40
2018-12-25T21:32:22.738Z,1.50
2018-12-25T21:37:15.973Z,1.40
2018-12-25T21:42:09.246Z,1.30
2018-12-25T21:47:02.833Z,1.30
2018-12-25T21:51:55.721Z,1.30
2018-12-25T21:56:48.720Z,1.20
2018-12-25T22:01:41.562Z,1.00
2018-12-25T22:06:34.427Z,1.00
2018-12-25T22:11:27.279Z,0.90
2018-12-25T22:16:20.217Z,1.00
2018-12-25T22:21:13.219Z,1.00
2018-12-25T22:26:07.979Z,0.90
2018-12-25T22:31:00.859Z,0.90
2018-12-25T22:35:53.751Z,0.90
2018-12-25T22:40:46.620Z,0.80
2018-12-25T22:45:39.507Z,0.90
2018-12-25T22:50:32.431Z,0.80
2018-12-25T22:55:25.508Z,0.70
2018-12-25T23:00:19.653Z,0.70
2018-12-25T23:05:12.531Z,0.70
2018-12-25T23:10:07.697Z,0.70
2018-12-25T23:15:00.573Z,0.70
2018-12-25T23:19:53.459Z,0.70
2018-12-25T23:24:46.321Z,0.60
2018-12-25T23:29:39.231Z,0.70
2018-12-25T23:34:32.102Z,0.70
2018-12-25T23:39:25.011Z,0.70
2018-12-25T23:44:17.867Z,0.60
2018-12-25T23:49:10.747Z,0.50
2018-12-25T23:54:03.597Z,0.50
2018-12-25T23:58:56.612Z,0.50
